createdAt,value
2023-10-10T00:01:45.912Z,97737.34
2023-10-10T00:04:13.406Z,97736.34
2023-10-10T00:06:41.624Z,97750.59
2023-10-10T00:09:11.989Z,97742.78
2023-10-10T00:11:43.510Z,97744.31
2023-10-10T00:14:20.674Z,97745.44
2023-10-10T00:16:56.764Z,97737.34
2023-10-10T00:19:38.661Z,97744.59
2023-10-10T00:22:08.073Z,97749.09
2023-10-10T00:24:35.074Z,97743.91
2023-10-10T00:27:14.637Z,97737.63
2023-10-10T00:29:44.999Z,97745.59
2023-10-10T00:32:19.511Z,97731.47
2023-10-10T00:34:49.465Z,97727.97
2023-10-10T00:37:18.809Z,97728.44
2023-10-10T00:39:53.955Z,97733.72
2023-10-10T00:42:21.734Z,97735.94
2023-10-10T00:44:49.985Z,97736.78
2023-10-10T00:47:17.389Z,97736.25
2023-10-10T00:49:46.432Z,97733.59
2023-10-10T00:52:18.171Z,97729.25
2023-10-10T00:54:45.325Z,97736.25
2023-10-10T00:57:21.247Z,97735.25
2023-10-10T00:59:49.719Z,97728.56
2023-10-10T01:02:22.602Z,97736.53
2023-10-10T01:04:50.462Z,97722.56
2023-10-10T01:07:21.993Z,97725.38
2023-10-10T01:09:55.792Z,97727.19
2023-10-10T01:12:24.546Z,97725.22
2023-10-10T01:14:56.224Z,97730.38
2023-10-10T01:17:30.460Z,97732.22
2023-10-10T01:20:19.200Z,97729.56
2023-10-10T01:22:50.132Z,97729.69
2023-10-10T01:25:34.239Z,97721.72
2023-10-10T01:28:08.051Z,97731.53
2023-10-10T01:30:53.578Z,97721.88
2023-10-10T01:33:37.229Z,97721.88
2023-10-10T01:36:13.001Z,97721.88
2023-10-10T01:38:45.641Z,97726.34
2023-10-10T01:41:24.352Z,97722.88
2023-10-10T01:44:09.787Z,97716.88
2023-10-10T01:46:36.671Z,97723.16
2023-10-10T01:49:03.718Z,97721.03
2023-10-10T01:51:34.702Z,97723.56
2023-10-10T01:54:13.130Z,97720.91
2023-10-10T01:56:39.925Z,97722.88
2023-10-10T01:59:11.402Z,97716.88
2023-10-10T02:01:39.446Z,97719.53
2023-10-10T02:04:09.150Z,97721.19
2023-10-10T02:06:42.161Z,97719.53
2023-10-10T02:09:20.715Z,97724.81
2023-10-10T02:11:56.501Z,97718.69
2023-10-10T02:14:26.713Z,97729.31
2023-10-10T02:16:56.540Z,97725.97
2023-10-10T02:19:36.973Z,97728.75
2023-10-10T02:22:16.699Z,97722.75
2023-10-10T02:24:50.217Z,97723.75
2023-10-10T02:27:21.395Z,97726.25
2023-10-10T02:29:51.297Z,97727.09
2023-10-10T02:32:20.922Z,97726.25
2023-10-10T02:35:02.140Z,97722.91
2023-10-10T02:37:28.934Z,97721.78
2023-10-10T02:40:09.380Z,97716.63
2023-10-10T02:42:36.137Z,97735.50
2023-10-10T02:45:03.919Z,97720.41
2023-10-10T02:47:34.212Z,97723.06
2023-10-10T02:50:12.826Z,97735.50
2023-10-10T02:52:47.067Z,97734.66
2023-10-10T02:55:34.844Z,97722.75
2023-10-10T02:58:02.131Z,97729.06
2023-10-10T03:00:29.757Z,97731.84
2023-10-10T03:03:00.379Z,97732.97
2023-10-10T03:05:40.986Z,97736.31
2023-10-10T03:08:16.144Z,97730.19
2023-10-10T03:10:47.003Z,97734.78
2023-10-10T03:13:29.817Z,97730.47
2023-10-10T03:15:58.008Z,97732.97
2023-10-10T03:18:30.591Z,97733.97
2023-10-10T03:21:13.188Z,97733.81
2023-10-10T03:23:54.181Z,97729.34
2023-10-10T03:26:42.327Z,97727.81
2023-10-10T03:29:13.369Z,97723.34
2023-10-10T03:31:48.060Z,97728.78
2023-10-10T03:34:45.172Z,97725.16
2023-10-10T03:37:27.047Z,97717.31
2023-10-10T03:39:59.587Z,97716.47
2023-10-10T03:42:45.198Z,97719.84
2023-10-10T03:45:30.952Z,97725.28
2023-10-10T03:48:16.377Z,97726.25
2023-10-10T03:51:03.399Z,97727.09
2023-10-10T03:53:49.563Z,97729.88
2023-10-10T03:56:38.780Z,97730.59
2023-10-10T03:59:25.741Z,97728.25
2023-10-10T04:02:13.507Z,97728.25
2023-10-10T04:05:12.009Z,97728.53
2023-10-10T04:08:05.859Z,97725.06
2023-10-10T04:10:51.117Z,97732.19
2023-10-10T04:13:36.840Z,97735.94
2023-10-10T04:16:51.233Z,97744.91
2023-10-10T04:19:36.779Z,97748.69
2023-10-10T04:22:25.008Z,97740.03
2023-10-10T04:25:10.651Z,97744.34
2023-10-10T04:27:56.102Z,97743.38
2023-10-10T04:30:41.866Z,97745.63
2023-10-10T04:33:26.988Z,97741.00
2023-10-10T04:36:12.520Z,97741.97
2023-10-10T04:38:58.305Z,97736.66
2023-10-10T04:41:43.413Z,97738.63
2023-10-10T04:44:29.139Z,97736.81
2023-10-10T04:47:14.248Z,97738.22
2023-10-10T04:49:59.607Z,97735.88
2023-10-10T04:52:44.946Z,97743.69
2023-10-10T04:55:30.312Z,97748.97
2023-10-10T04:58:15.481Z,97748.97
2023-10-10T05:01:00.501Z,97752.63
2023-10-10T05:03:45.799Z,97747.59
2023-10-10T05:06:31.563Z,97744.81
2023-10-10T05:09:19.978Z,97743.97
2023-10-10T05:12:05.110Z,97752.06
2023-10-10T05:14:50.582Z,97751.38
2023-10-10T05:17:35.784Z,97757.81
2023-10-10T05:20:21.011Z,97749.28
2023-10-10T05:23:06.615Z,97751.66
2023-10-10T05:25:34.062Z,97750.13
2023-10-10T05:28:00.944Z,97750.97
2023-10-10T05:30:28.876Z,97753.47
2023-10-10T05:33:03.929Z,97741.03
2023-10-10T05:35:32.306Z,97749.00
2023-10-10T05:38:01.823Z,97745.50
2023-10-10T05:40:29.288Z,97740.50
2023-10-10T05:42:58.795Z,97750.81
2023-10-10T05:45:26.308Z,97744.81
2023-10-10T05:47:53.590Z,97746.34
2023-10-10T05:50:20.516Z,97749.00
2023-10-10T05:52:47.420Z,97755.44
2023-10-10T05:55:14.999Z,97755.44
2023-10-10T05:57:45.275Z,97753.75
2023-10-10T06:00:13.164Z,97754.59
2023-10-10T06:02:43.608Z,97769.69
2023-10-10T06:05:11.150Z,97776.66
2023-10-10T06:07:39.011Z,97773.31
2023-10-10T06:10:08.028Z,97759.91
2023-10-10T06:12:35.410Z,97767.03
2023-10-10T06:15:06.621Z,97765.50
2023-10-10T06:17:36.138Z,97755.72
2023-10-10T06:20:03.461Z,97753.22
2023-10-10T06:22:31.173Z,97759.50
2023-10-10T06:25:00.671Z,97760.47
2023-10-10T06:27:30.261Z,97768.97
2023-10-10T06:30:00.306Z,97766.31
2023-10-10T06:32:27.931Z,97772.19
2023-10-10T06:35:17.381Z,97773.84
2023-10-10T06:37:44.464Z,97787.25
2023-10-10T06:40:11.756Z,97787.13
2023-10-10T06:42:39.651Z,97787.94
2023-10-10T06:45:11.428Z,97795.50
2023-10-10T06:47:42.966Z,97791.31
2023-10-10T06:50:13.602Z,97788.78
2023-10-10T06:52:40.642Z,97791.44
2023-10-10T06:55:12.270Z,97790.47
2023-10-10T06:57:42.552Z,97796.47
2023-10-10T07:00:18.763Z,97791.44
2023-10-10T07:02:50.002Z,97792.72
2023-10-10T07:05:17.407Z,97789.91
2023-10-10T07:07:44.211Z,97799.13
2023-10-10T07:10:11.099Z,97793.97
2023-10-10T07:12:40.130Z,97803.44
2023-10-10T07:15:11.142Z,97799.97
2023-10-10T07:17:40.578Z,97798.16
2023-10-10T07:20:07.719Z,97794.50
2023-10-10T07:22:36.152Z,97799.81
2023-10-10T07:25:18.825Z,97795.50
2023-10-10T07:27:45.973Z,97801.78
2023-10-10T07:30:18.874Z,97792.56
2023-10-10T07:32:50.133Z,97809.03
2023-10-10T07:35:20.820Z,97807.09
2023-10-10T07:37:47.836Z,97805.28
2023-10-10T07:40:15.861Z,97808.47
2023-10-10T07:42:42.640Z,97808.63
2023-10-10T07:45:15.713Z,97808.47
2023-10-10T07:47:58.542Z,97816.84
2023-10-10T07:50:36.837Z,97818.53
2023-10-10T07:53:07.055Z,97826.47
2023-10-10T07:55:52.129Z,97827.03
2023-10-10T07:58:19.188Z,97832.22
2023-10-10T08:00:46.277Z,97827.88
2023-10-10T08:03:20.664Z,97826.91
2023-10-10T08:05:49.634Z,97819.91
2023-10-10T08:08:17.278Z,97827.59
2023-10-10T08:10:47.665Z,97822.28
2023-10-10T08:13:15.603Z,97818.50
2023-10-10T08:15:57.521Z,97813.06
2023-10-10T08:18:43.627Z,97812.91
2023-10-10T08:21:12.478Z,97825.34
2023-10-10T08:23:51.255Z,97820.44
2023-10-10T08:26:30.274Z,97820.97
2023-10-10T08:28:57.219Z,97820.81
2023-10-10T08:31:24.387Z,97818.50
2023-10-10T08:33:51.343Z,97816.66
2023-10-10T08:36:26.335Z,97823.63
2023-10-10T08:38:57.967Z,97823.47
2023-10-10T08:41:32.909Z,97831.34
2023-10-10T08:44:00.073Z,97819.59
2023-10-10T08:46:42.091Z,97822.25
2023-10-10T08:49:09.957Z,97817.63
2023-10-10T08:51:37.363Z,97817.63
2023-10-10T08:54:12.421Z,97818.19
2023-10-10T08:56:42.910Z,97823.22
2023-10-10T08:59:12.563Z,97822.09
2023-10-10T09:01:43.593Z,97826.28
2023-10-10T09:04:19.058Z,97820.81
2023-10-10T09:06:58.331Z,97822.34
2023-10-10T09:09:36.088Z,97824.84
2023-10-10T09:12:10.640Z,97829.19
2023-10-10T09:14:41.044Z,97821.91
2023-10-10T09:17:13.150Z,97823.59
2023-10-10T09:19:49.075Z,97824.13
2023-10-10T09:22:30.932Z,97818.69
2023-10-10T09:24:57.762Z,97811.41
2023-10-10T09:27:28.836Z,97819.22
2023-10-10T09:29:58.573Z,97824.25
2023-10-10T09:32:38.242Z,97817.81
2023-10-10T09:35:07.991Z,97807.03
2023-10-10T09:37:40.067Z,97820.03
2023-10-10T09:40:17.174Z,97820.72
2023-10-10T09:43:05.299Z,97813.28
2023-10-10T09:45:54.657Z,97806.00
2023-10-10T09:48:41.255Z,97807.69
2023-10-10T09:51:37.809Z,97802.91
2023-10-10T09:54:17.600Z,97800.09
2023-10-10T09:57:09.807Z,97803.31
2023-10-10T09:59:38.954Z,97806.50
2023-10-10T10:02:07.010Z,97808.19
2023-10-10T10:04:43.625Z,97816.66
2023-10-10T10:07:42.493Z,97810.22
2023-10-10T10:10:36.444Z,97809.91
2023-10-10T10:13:29.975Z,97806.97
2023-10-10T10:16:16.870Z,97805.69
2023-10-10T10:18:48.166Z,97811.69
2023-10-10T10:21:20.050Z,97811.53
2023-10-10T10:23:49.321Z,97813.91
2023-10-10T10:26:35.832Z,97818.13
2023-10-10T10:29:17.174Z,97816.69
2023-10-10T10:31:52.965Z,97805.91
2023-10-10T10:34:32.829Z,97806.59
2023-10-10T10:37:07.704Z,97808.09
2023-10-10T10:39:36.615Z,97801.66
2023-10-10T10:42:13.563Z,97801.50
2023-10-10T10:45:00.511Z,97802.19
2023-10-10T10:47:37.033Z,97805.38
2023-10-10T10:50:05.797Z,97806.91
2023-10-10T10:52:45.603Z,97800.44
2023-10-10T10:55:25.218Z,97800.16
2023-10-10T10:58:07.406Z,97798.00
2023-10-10T11:00:59.790Z,97798.69
2023-10-10T11:03:37.381Z,97791.41
2023-10-10T11:06:09.652Z,97791.94
2023-10-10T11:08:57.482Z,97783.66
2023-10-10T11:11:38.381Z,97783.34
2023-10-10T11:14:17.443Z,97781.38
2023-10-10T11:16:48.372Z,97786.19
2023-10-10T11:19:22.897Z,97780.56
2023-10-10T11:22:01.579Z,97777.75
2023-10-10T11:24:33.122Z,97774.78
2023-10-10T11:27:15.323Z,97776.16
2023-10-10T11:29:47.473Z,97774.03
2023-10-10T11:32:30.595Z,97761.38
2023-10-10T11:35:19.302Z,97765.56
2023-10-10T11:37:49.444Z,97757.28
2023-10-10T11:40:33.051Z,97753.47
2023-10-10T11:43:01.349Z,97751.34
2023-10-10T11:45:29.500Z,97739.69
2023-10-10T11:48:06.709Z,97735.06
2023-10-10T11:50:46.271Z,97736.44
2023-10-10T11:53:21.018Z,97737.94
2023-10-10T11:55:48.914Z,97734.97
2023-10-10T11:58:18.659Z,97732.84
2023-10-10T12:00:46.223Z,97731.69
2023-10-10T12:03:15.329Z,97727.03
2023-10-10T12:05:52.112Z,97732.19
2023-10-10T12:08:26.105Z,97734.53
2023-10-10T12:10:57.744Z,97731.72
2023-10-10T12:13:30.581Z,97731.56
2023-10-10T12:16:13.814Z,97734.22
2023-10-10T12:18:51.583Z,97729.75
2023-10-10T12:21:22.793Z,97733.91
2023-10-10T12:24:01.354Z,97731.25
2023-10-10T12:26:31.359Z,97724.09
2023-10-10T12:28:58.548Z,97719.44
2023-10-10T12:31:25.409Z,97720.44
2023-10-10T12:33:55.508Z,97720.28
2023-10-10T12:36:31.044Z,97722.63
2023-10-10T12:39:00.832Z,97720.13
2023-10-10T12:41:28.126Z,97725.97
2023-10-10T12:43:54.931Z,97719.66
2023-10-10T12:46:25.165Z,97714.16
2023-10-10T12:48:53.531Z,97712.16
2023-10-10T12:51:24.095Z,97705.81
2023-10-10T12:53:58.166Z,97703.00
2023-10-10T12:56:25.256Z,97704.50
2023-10-10T12:59:03.056Z,97701.69
2023-10-10T13:01:37.197Z,97695.19
2023-10-10T13:04:09.463Z,97696.53
2023-10-10T13:06:41.281Z,97688.38
2023-10-10T13:09:09.958Z,97686.25
2023-10-10T13:11:45.580Z,97686.75
2023-10-10T13:14:20.717Z,97679.44
2023-10-10T13:16:47.720Z,97678.09
2023-10-10T13:19:14.992Z,97676.13
2023-10-10T13:21:44.073Z,97677.47
2023-10-10T13:24:13.297Z,97676.31
2023-10-10T13:26:41.051Z,97675.13
2023-10-10T13:29:09.071Z,97670.66
2023-10-10T13:31:36.706Z,97675.53
2023-10-10T13:34:04.411Z,97666.34
2023-10-10T13:36:32.072Z,97668.69
2023-10-10T13:39:06.967Z,97663.19
2023-10-10T13:41:37.491Z,97664.88
2023-10-10T13:44:05.302Z,97658.53
2023-10-10T13:46:34.480Z,97659.22
2023-10-10T13:49:01.815Z,97662.53
2023-10-10T13:51:29.635Z,97666.88
2023-10-10T13:53:58.482Z,97653.56
2023-10-10T13:56:25.526Z,97661.22
2023-10-10T13:58:53.942Z,97654.56
2023-10-10T14:01:29.934Z,97657.88
2023-10-10T14:04:16.701Z,97650.56
2023-10-10T14:06:47.339Z,97652.06
2023-10-10T14:09:24.492Z,97651.91
2023-10-10T14:11:58.748Z,97648.19
2023-10-10T14:14:25.675Z,97651.53
2023-10-10T14:16:52.608Z,97648.53
2023-10-10T14:19:19.758Z,97642.19
2023-10-10T14:21:49.009Z,97649.19
2023-10-10T14:24:16.268Z,97650.69
2023-10-10T14:26:46.244Z,97655.03
2023-10-10T14:29:16.083Z,97646.69
2023-10-10T14:31:46.880Z,97651.03
2023-10-10T14:34:22.189Z,97646.19
2023-10-10T14:36:53.236Z,97651.38
2023-10-10T14:39:31.066Z,97640.53
2023-10-10T14:41:59.043Z,97647.38
2023-10-10T14:44:27.845Z,97648.19
2023-10-10T14:47:04.387Z,97649.88
2023-10-10T14:49:31.330Z,97660.22
2023-10-10T14:52:06.389Z,97654.69
2023-10-10T14:54:42.388Z,97653.03
2023-10-10T14:57:11.491Z,97657.38
2023-10-10T14:59:38.432Z,97659.03
2023-10-10T15:02:07.950Z,97656.38
2023-10-10T15:04:35.217Z,97646.53
2023-10-10T15:07:02.153Z,97641.19
2023-10-10T15:09:28.952Z,97648.19
2023-10-10T15:12:00.926Z,97644.69
2023-10-10T15:14:28.018Z,97650.03
2023-10-10T15:16:55.212Z,97649.03
2023-10-10T15:19:22.187Z,97648.19
2023-10-10T15:21:49.891Z,97649.03
2023-10-10T15:24:17.039Z,97652.53
2023-10-10T15:26:49.771Z,97648.84
2023-10-10T15:29:18.624Z,97654.19
2023-10-10T15:31:46.638Z,97657.69
2023-10-10T15:34:17.563Z,97654.88
2023-10-10T15:36:47.928Z,97649.53
2023-10-10T15:39:17.196Z,97656.69
2023-10-10T15:41:46.191Z,97669.19
2023-10-10T15:44:14.263Z,97659.38
2023-10-10T15:46:43.813Z,97670.69
2023-10-10T15:49:33.174Z,97662.88
2023-10-10T15:52:05.499Z,97658.38
2023-10-10T15:54:35.935Z,97664.38
2023-10-10T15:57:04.917Z,97658.03
2023-10-10T15:59:31.823Z,97666.19
2023-10-10T16:01:59.711Z,97660.88
2023-10-10T16:04:29.090Z,97662.69
2023-10-10T16:06:56.807Z,97671.72
2023-10-10T16:09:31.179Z,97661.19
2023-10-10T16:11:58.825Z,97663.88
2023-10-10T16:14:27.347Z,97672.72
2023-10-10T16:16:54.400Z,97665.69
2023-10-10T16:19:28.681Z,97674.53
2023-10-10T16:21:56.650Z,97674.53
2023-10-10T16:24:29.355Z,97668.53
2023-10-10T16:27:01.020Z,97673.88
2023-10-10T16:29:35.171Z,97676.53
2023-10-10T16:32:19.545Z,97670.38
2023-10-10T16:34:46.622Z,97663.19
2023-10-10T16:37:17.678Z,97669.53
2023-10-10T16:39:48.369Z,97670.38
2023-10-10T16:42:21.299Z,97654.53
2023-10-10T16:44:48.524Z,97663.53
2023-10-10T16:47:23.158Z,97660.88
2023-10-10T16:49:53.670Z,97662.72
2023-10-10T16:52:29.905Z,97666.38
2023-10-10T16:54:58.363Z,97672.53
2023-10-10T16:57:26.080Z,97668.22
2023-10-10T16:59:56.721Z,97678.03
2023-10-10T17:02:29.777Z,97677.22
2023-10-10T17:04:57.130Z,97674.72
2023-10-10T17:07:27.500Z,97676.72
2023-10-10T17:09:54.388Z,97675.88
2023-10-10T17:12:21.145Z,97680.38
2023-10-10T17:14:49.148Z,97676.88
2023-10-10T17:17:15.989Z,97677.03
2023-10-10T17:19:43.017Z,97685.03
2023-10-10T17:22:09.832Z,97681.56
2023-10-10T17:24:36.735Z,97690.56
2023-10-10T17:27:08.161Z,97688.06
2023-10-10T17:29:37.246Z,97681.88
2023-10-10T17:32:04.207Z,97688.22
2023-10-10T17:34:34.814Z,97690.88
2023-10-10T17:37:01.659Z,97688.53
2023-10-10T17:39:28.434Z,97693.88
2023-10-10T17:41:55.822Z,97693.22
2023-10-10T17:44:22.730Z,97693.22
2023-10-10T17:46:49.624Z,97687.03
2023-10-10T17:49:16.951Z,97685.38
2023-10-10T17:51:46.216Z,97687.22
2023-10-10T17:54:13.542Z,97683.72
2023-10-10T17:56:40.609Z,97698.03
2023-10-10T17:59:07.614Z,97697.22
2023-10-10T18:01:34.563Z,97691.03
2023-10-10T18:04:04.467Z,97696.53
2023-10-10T18:06:31.534Z,97702.03
2023-10-10T18:09:09.708Z,97703.88
2023-10-10T18:11:38.235Z,97690.69
2023-10-10T18:14:08.713Z,97710.38
2023-10-10T18:16:36.424Z,97708.91
2023-10-10T18:19:04.106Z,97708.06
2023-10-10T18:21:33.320Z,97701.22
2023-10-10T18:24:07.580Z,97699.41
2023-10-10T18:26:39.391Z,97700.41
2023-10-10T18:29:07.104Z,97716.56
2023-10-10T18:31:36.020Z,97705.22
2023-10-10T18:34:06.554Z,97696.38
2023-10-10T18:36:38.456Z,97705.38
2023-10-10T18:39:13.218Z,97707.22
2023-10-10T18:41:44.543Z,97708.22
2023-10-10T18:44:12.259Z,97705.72
2023-10-10T18:46:39.404Z,97704.03
2023-10-10T18:49:10.850Z,97693.53
2023-10-10T18:51:37.811Z,97698.88
2023-10-10T18:54:09.988Z,97705.19
2023-10-10T18:56:36.989Z,97704.53
2023-10-10T18:59:03.837Z,97706.53
2023-10-10T19:01:30.643Z,97709.19
2023-10-10T19:04:00.422Z,97700.69
2023-10-10T19:06:28.041Z,97701.69
2023-10-10T19:09:01.148Z,97700.19
2023-10-10T19:11:28.290Z,97697.69
2023-10-10T19:13:55.471Z,97707.50
2023-10-10T19:16:22.858Z,97704.31
2023-10-10T19:18:49.752Z,97713.44
2023-10-10T19:21:18.501Z,97703.78
2023-10-10T19:23:49.524Z,97705.09
2023-10-10T19:26:16.867Z,97707.59
2023-10-10T19:28:44.447Z,97709.44
2023-10-10T19:31:11.312Z,97700.59
2023-10-10T19:33:38.276Z,97702.75
2023-10-10T19:36:09.400Z,97700.09
2023-10-10T19:38:36.402Z,97708.09
2023-10-10T19:41:10.264Z,97709.09
2023-10-10T19:43:38.377Z,97707.75
2023-10-10T19:46:11.949Z,97707.91
2023-10-10T19:48:43.520Z,97716.06
2023-10-10T19:51:18.528Z,97707.22
2023-10-10T19:53:46.869Z,97711.06
2023-10-10T19:56:13.820Z,97706.72
2023-10-10T19:58:43.239Z,97709.72
2023-10-10T20:01:10.511Z,97699.88
2023-10-10T20:03:37.698Z,97695.56
2023-10-10T20:06:08.172Z,97702.19
2023-10-10T20:08:36.095Z,97701.34
2023-10-10T20:11:04.870Z,97703.03
2023-10-10T20:13:31.755Z,97708.34
2023-10-10T20:15:58.572Z,97698.84
2023-10-10T20:18:26.486Z,97701.69
2023-10-10T20:20:53.584Z,97702.69
2023-10-10T20:23:22.234Z,97702.84
2023-10-10T20:25:52.649Z,97705.66
2023-10-10T20:28:19.533Z,97704.19
2023-10-10T20:30:47.112Z,97708.00
2023-10-10T20:33:17.708Z,97702.00
2023-10-10T20:35:46.208Z,97696.00
2023-10-10T20:38:13.768Z,97693.66
2023-10-10T20:40:44.331Z,97698.47
2023-10-10T20:43:12.081Z,97700.44
2023-10-10T20:45:39.467Z,97694.59
2023-10-10T20:48:12.928Z,97696.44
2023-10-10T20:53:32.181Z,97697.22
2023-10-10T20:55:59.079Z,97697.91
2023-10-10T20:58:25.866Z,97696.22
2023-10-10T21:00:52.780Z,97697.22
2023-10-10T21:03:20.061Z,97697.53
2023-10-10T21:05:49.007Z,97698.84
2023-10-10T21:08:19.010Z,97694.38
2023-10-10T21:09:13.534Z,97701.25
2023-10-10T21:11:11.723Z,97693.69
2023-10-10T21:13:38.642Z,97686.69
2023-10-10T21:16:16.164Z,97685.69
2023-10-10T21:18:43.884Z,97693.00
2023-10-10T21:21:12.190Z,97687.00
2023-10-10T21:23:40.115Z,97691.34
2023-10-10T21:26:12.049Z,97689.13
2023-10-10T21:28:38.887Z,97691.66
2023-10-10T21:31:11.427Z,97689.44
2023-10-10T21:33:42.081Z,97687.75
2023-10-10T21:36:09.479Z,97688.06
2023-10-10T21:38:36.501Z,97688.91
2023-10-10T21:41:05.027Z,97684.56
2023-10-10T21:43:34.640Z,97684.56
2023-10-10T21:46:05.818Z,97682.75
2023-10-10T21:48:32.823Z,97676.75
2023-10-10T21:51:01.083Z,97683.22
2023-10-10T21:53:28.604Z,97677.75
2023-10-10T21:55:55.479Z,97688.69
2023-10-10T21:58:22.250Z,97684.53
2023-10-10T22:00:50.616Z,97682.53
2023-10-10T22:03:17.493Z,97685.03
2023-10-10T22:05:46.615Z,97683.38
2023-10-10T22:08:14.261Z,97681.72
2023-10-10T22:10:43.387Z,97682.03
2023-10-10T22:13:12.803Z,97683.00
2023-10-10T22:15:39.632Z,97687.66
2023-10-10T22:18:06.677Z,97684.16
2023-10-10T22:20:36.745Z,97683.47
2023-10-10T22:23:06.065Z,97681.97
2023-10-10T22:25:36.073Z,97678.31
2023-10-10T22:28:05.353Z,97680.44
2023-10-10T22:30:39.292Z,97684.94
2023-10-10T22:33:12.460Z,97676.81
2023-10-10T22:35:39.949Z,97674.63
2023-10-10T22:38:07.288Z,97677.13
2023-10-10T22:40:34.878Z,97675.44
2023-10-10T22:43:04.220Z,97677.47
2023-10-10T22:45:36.721Z,97673.28
2023-10-10T22:48:05.771Z,97674.78
2023-10-10T22:50:33.270Z,97673.28
2023-10-10T22:53:02.705Z,97672.75
2023-10-10T22:55:35.161Z,97669.09
2023-10-10T22:58:08.323Z,97672.06
2023-10-10T23:00:39.590Z,97671.25
2023-10-10T23:03:14.313Z,97673.06
2023-10-10T23:05:44.301Z,97664.25
2023-10-10T23:08:12.682Z,97670.25
2023-10-10T23:10:41.242Z,97666.06
2023-10-10T23:13:08.413Z,97663.56
2023-10-10T23:15:39.050Z,97669.88
2023-10-10T23:18:12.164Z,97667.38
2023-10-10T23:20:42.965Z,97673.84
2023-10-10T23:23:11.627Z,97671.19
2023-10-10T23:25:38.711Z,97668.84
2023-10-10T23:28:05.575Z,97670.81
2023-10-10T23:30:34.513Z,97666.31
2023-10-10T23:33:01.979Z,97664.81
2023-10-10T23:35:28.853Z,97661.16
2023-10-10T23:38:01.992Z,97665.66
2023-10-10T23:40:47.271Z,97667.63
2023-10-10T23:43:20.085Z,97665.81
2023-10-10T23:45:49.967Z,97663.28
2023-10-10T23:48:17.721Z,97663.44
2023-10-10T23:50:45.966Z,97665.28
2023-10-10T23:53:14.516Z,97668.09
2023-10-10T23:55:42.202Z,97667.25
2023-10-10T23:58:13.351Z,97671.06
